Time;durP1;ratioP1;P1;durP2;ratioP2;P2;SDS_P1;SDS_P2;PMS_P1;PMS_P2;Temp;Humidity;BMP_temperature;BMP_pressure;BME280_temperature;BME280_humidity;BME280_pressure;Samples;Min_cycle;Max_cycle;Signal;HPM_P1;HPM_P2
2022/12/11 00:01:41;;;;;;;57.97;28.33;;;;;;;0.85;84.91;100775.22;5044788;28;20059;-67
2022/12/11 00:04:06;;;;;;;61.88;29.80;;;;;;;0.88;85.16;100774.44;5041583;28;20110;-67
2022/12/11 00:06:32;;;;;;;60.05;28.90;;;;;;;0.89;85.03;100777.00;5042168;28;20132;-67
2022/12/11 00:08:57;;;;;;;60.78;27.98;;;;;;;0.91;85.13;100774.53;5032915;28;20747;-68
2022/12/11 00:11:22;;;;;;;58.40;27.38;;;;;;;0.93;85.67;100775.44;5029842;28;20501;-68
2022/12/11 00:13:48;;;;;;;61.95;28.58;;;;;;;0.94;85.46;100777.16;5025806;28;20037;-68
2022/12/11 00:16:14;;;;;;;68.63;30.40;;;;;;;0.95;85.69;100774.66;5031032;28;20052;-67
2022/12/11 00:18:39;;;;;;;62.78;28.88;;;;;;;0.97;85.73;100770.50;5058444;28;20043;-68
2022/12/11 00:21:07;;;;;;;57.83;27.73;;;;;;;0.97;85.86;100767.09;5049225;28;20063;-66
2022/12/11 00:23:34;;;;;;;52.83;25.95;;;;;;;0.99;86.10;100771.41;5021573;28;1158021;-67
2022/12/11 00:26:03;;;;;;;62.70;28.40;;;;;;;1.00;86.31;100774.81;5052119;28;20029;-68
2022/12/11 00:28:29;;;;;;;64.05;28.40;;;;;;;0.99;86.54;100767.97;5062131;28;20058;-67
2022/12/11 00:30:54;;;;;;;62.55;28.42;;;;;;;1.00;87.08;100773.13;5060210;28;20040;-68
2022/12/11 00:33:19;;;;;;;56.65;25.33;;;;;;;0.98;87.40;100768.78;5060923;28;20099;-68
2022/12/11 00:35:45;;;;;;;58.10;25.25;;;;;;;0.96;87.29;100766.22;5049335;28;20894;-67
2022/12/11 00:38:16;;;;;;;58.38;22.98;;;;;;;0.97;87.67;100769.63;5049638;28;20029;-67
2022/12/11 00:40:42;;;;;;;53.40;22.50;;;;;;;0.98;87.81;100764.56;5060892;28;20037;-68
2022/12/11 00:43:08;;;;;;;56.75;21.92;;;;;;;1.00;87.99;100760.41;5056457;28;20106;-68
2022/12/11 00:45:39;;;;;;;57.28;21.50;;;;;;;1.01;88.01;100759.56;5045643;28;20033;-68
2022/12/11 00:48:05;;;;;;;60.78;22.83;;;;;;;0.97;87.74;100765.41;5055819;28;20036;-65
2022/12/11 00:50:30;;;;;;;57.47;22.40;;;;;;;0.94;87.98;100759.34;5054908;28;20298;-68
2022/12/11 00:52:55;;;;;;;55.72;21.85;;;;;;;0.90;88.13;100762.63;5054920;28;20122;-68
2022/12/11 00:55:21;;;;;;;61.03;23.85;;;;;;;0.88;88.67;100767.69;5041416;28;20666;-67
2022/12/11 00:57:46;;;;;;;55.55;23.58;;;;;;;0.91;88.73;100764.34;5048725;28;20032;-66
2022/12/11 01:00:12;;;;;;;61.90;23.77;;;;;;;0.93;88.74;100765.25;5045914;28;20561;-68
2022/12/11 01:02:38;;;;;;;57.20;20.88;;;;;;;0.92;88.76;100766.06;5042277;28;20366;-68
2022/12/11 01:05:03;;;;;;;66.65;24.52;;;;;;;0.91;88.97;100767.78;5040012;28;20831;-68
2022/12/11 01:07:29;;;;;;;66.97;24.17;;;;;;;0.93;88.97;100770.34;5036638;28;20230;-68
2022/12/11 01:12:38;;;;;;;56.75;22.73;;;;;;;0.93;88.75;100755.94;5041424;28;20702;-67
2022/12/11 01:15:05;;;;;;;59.92;24.50;;;;;;;0.93;88.79;100766.13;5041503;28;20033;-67
2022/12/11 01:17:30;;;;;;;66.38;24.30;;;;;;;0.92;89.35;100759.31;5034334;28;20053;-68
2022/12/11 01:19:55;;;;;;;67.60;23.75;;;;;;;0.96;89.39;100760.25;5041493;28;20041;-67
2022/12/11 01:22:21;;;;;;;62.08;25.13;;;;;;;0.96;89.41;100758.59;5039842;28;20697;-68
2022/12/11 01:24:46;;;;;;;72.90;26.15;;;;;;;0.98;89.16;100763.69;5043806;28;20083;-67
2022/12/11 01:27:12;;;;;;;74.57;26.17;;;;;;;0.94;88.69;100765.31;5045713;28;20840;-67
2022/12/11 01:29:37;;;;;;;66.88;26.40;;;;;;;0.96;89.01;100762.81;5045041;28;20036;-68
2022/12/11 01:32:03;;;;;;;70.28;25.75;;;;;;;0.92;88.89;100751.66;5031719;28;20130;-68
2022/12/11 01:34:29;;;;;;;69.53;25.30;;;;;;;0.90;88.74;100750.75;5046707;28;20036;-67
2022/12/11 01:36:55;;;;;;;70.63;27.08;;;;;;;0.91;89.08;100751.63;5046956;28;20152;-68
2022/12/11 01:39:20;;;;;;;70.22;26.00;;;;;;;0.92;88.99;100749.13;5060007;28;20088;-68
2022/12/11 01:41:45;;;;;;;67.40;24.20;;;;;;;0.95;89.02;100749.22;5056020;28;20024;-68
2022/12/11 01:44:14;;;;;;;68.57;24.60;;;;;;;0.96;88.87;100755.16;5044695;28;20853;-67
2022/12/11 01:46:39;;;;;;;67.95;25.40;;;;;;;0.97;88.65;100745.06;5044245;28;20068;-68
2022/12/11 01:49:09;;;;;;;65.03;22.80;;;;;;;1.02;89.13;100750.25;5044682;28;20104;-68
2022/12/11 01:51:41;;;;;;;70.47;25.25;;;;;;;1.00;89.06;100750.22;5060122;28;20135;-67
2022/12/11 01:54:12;;;;;;;65.45;25.77;;;;;;;0.99;88.69;100748.50;5064778;28;20036;-67
2022/12/11 01:56:40;;;;;;;66.72;25.70;;;;;;;0.99;88.83;100756.13;5064613;28;20617;-68
2022/12/11 01:59:07;;;;;;;63.55;23.45;;;;;;;1.01;88.75;100748.53;5041211;28;20041;-68
2022/12/11 02:01:45;;;;;;;68.63;27.08;;;;;;;0.98;88.44;100746.75;5043117;28;20033;-68
2022/12/11 02:04:12;;;;;;;60.50;24.23;;;;;;;0.96;88.45;100750.94;5028452;28;20036;-68
2022/12/11 02:06:44;;;;;;;64.97;26.10;;;;;;;0.95;88.43;100754.31;5037634;28;20037;-68
2022/12/11 02:09:13;;;;;;;67.60;25.17;;;;;;;0.97;88.62;100749.28;5030670;28;20033;-68
2022/12/11 02:11:56;;;;;;;62.10;23.67;;;;;;;0.99;88.91;100751.03;5051642;28;20063;-67
2022/12/11 02:14:37;;;;;;;60.42;25.13;;;;;;;0.98;88.31;100739.13;5063667;28;20409;-67
2022/12/11 02:17:22;;;;;;;56.78;23.15;;;;;;;1.01;88.19;100738.34;5059880;28;20064;-67
2022/12/11 02:20:00;;;;;;;55.60;22.48;;;;;;;1.03;88.43;100734.19;5029379;28;20045;-68
2022/12/11 02:23:16;;;;;;;55.72;22.23;;;;;;;1.06;88.27;100740.19;5047592;28;20419;-68
2022/12/11 02:25:50;;;;;;;58.03;22.08;;;;;;;1.08;87.93;100735.16;5041047;28;20048;-68
2022/12/11 02:28:42;;;;;;;56.92;23.77;;;;;;;1.06;87.90;100735.09;5064451;28;20029;-68
2022/12/11 02:31:46;;;;;;;52.53;23.70;;;;;;;1.01;87.82;100736.66;5063296;28;20083;-68
2022/12/11 02:34:27;;;;;;;65.68;23.20;;;;;;;0.98;87.93;100736.56;5046588;28;20107;-68
2022/12/11 02:36:58;;;;;;;64.40;22.58;;;;;;;0.96;88.21;100730.59;5049682;28;20048;-67
2022/12/11 02:39:25;;;;;;;60.15;25.30;;;;;;;0.97;88.19;100731.47;5050908;28;20040;-68
2022/12/11 02:41:52;;;;;;;59.50;23.50;;;;;;;0.97;88.39;100734.88;5043146;28;20090;-68
2022/12/11 02:44:23;;;;;;;60.22;23.58;;;;;;;0.99;88.39;100733.22;5044049;28;20079;-67
2022/12/11 02:46:50;;;;;;;62.13;23.65;;;;;;;1.02;88.58;100729.91;5043629;28;20037;-68
2022/12/11 02:49:16;;;;;;;53.15;23.35;;;;;;;1.04;88.57;100733.34;5043733;28;20087;-68
2022/12/11 02:51:43;;;;;;;56.58;22.50;;;;;;;1.04;88.14;100728.25;5036448;28;20555;-68
2022/12/11 02:54:14;;;;;;;61.08;24.17;;;;;;;1.01;87.63;100726.50;5053610;28;20278;-66
2022/12/11 02:56:45;;;;;;;56.25;23.40;;;;;;;1.02;87.72;100730.78;5058090;28;20031;-67
2022/12/11 02:59:17;;;;;;;62.83;23.30;;;;;;;0.99;87.39;100727.28;5032043;28;20752;-61
2022/12/11 03:01:44;;;;;;;58.63;23.35;;;;;;;1.02;87.50;100720.59;5041678;28;20158;-61
2022/12/11 03:04:09;;;;;;;53.25;21.85;;;;;;;1.01;87.36;100721.41;5046277;28;20144;-61
2022/12/11 03:06:40;;;;;;;55.17;22.42;;;;;;;1.02;87.08;100724.81;5052144;28;20119;-61
2022/12/11 03:09:06;;;;;;;53.03;23.17;;;;;;;1.03;87.31;100724.00;5052747;28;20037;-61
2022/12/11 03:11:31;;;;;;;60.88;24.55;;;;;;;1.02;87.15;100724.81;5045608;28;20094;-61
2022/12/11 03:13:57;;;;;;;52.92;23.65;;;;;;;1.00;87.45;100724.78;5045957;28;20508;-61
2022/12/11 03:16:25;;;;;;;57.75;21.85;;;;;;;1.03;87.53;100724.88;5045276;28;20117;-61
2022/12/11 03:19:12;;;;;;;59.05;22.38;;;;;;;1.05;87.50;100725.78;5064667;28;20052;-62
2022/12/11 03:21:49;;;;;;;56.33;22.00;;;;;;;1.05;87.25;100718.13;5054625;28;20729;-61
2022/12/11 03:24:25;;;;;;;51.30;20.85;;;;;;;1.07;87.50;100713.06;5059767;28;20032;-61
2022/12/11 03:26:58;;;;;;;51.15;20.98;;;;;;;1.05;87.07;100720.69;5066300;28;20013;-61
2022/12/11 03:29:46;;;;;;;62.97;24.15;;;;;;;1.08;87.33;100725.88;5065287;28;20297;-61
2022/12/11 03:32:18;;;;;;;51.30;20.88;;;;;;;1.08;87.46;100720.78;5057353;28;20504;-61
2022/12/11 03:34:49;;;;;;;50.00;20.00;;;;;;;1.07;87.31;100718.16;5054128;28;20078;-61
2022/12/11 03:37:16;;;;;;;50.17;20.02;;;;;;;1.04;86.89;100712.97;5051521;28;20048;-61
2022/12/11 03:39:53;;;;;;;52.65;22.38;;;;;;;1.04;86.99;100720.63;5053748;28;20533;-61
2022/12/11 03:42:22;;;;;;;45.58;20.40;;;;;;;1.07;87.02;100729.22;5062899;28;20025;-61
2022/12/11 03:44:50;;;;;;;53.22;21.52;;;;;;;1.06;86.85;100722.38;5046020;28;20029;-61
2022/12/11 03:47:20;;;;;;;49.75;21.00;;;;;;;1.05;86.72;100733.41;5045369;28;20025;-61
2022/12/11 03:49:48;;;;;;;49.22;20.80;;;;;;;1.03;86.83;100729.97;5045169;28;20035;-61
2022/12/11 03:52:15;;;;;;;46.63;20.85;;;;;;;1.03;86.91;100727.41;5042594;28;20068;-61
2022/12/11 03:54:44;;;;;;;49.10;20.50;;;;;;;1.03;86.83;100732.50;5063499;28;20239;-61
2022/12/11 03:57:15;;;;;;;52.28;21.85;;;;;;;1.07;86.88;100731.75;5063775;28;20047;-61
2022/12/11 03:59:40;;;;;;;51.90;20.85;;;;;;;1.07;86.63;100729.22;5052171;28;20044;-61
2022/12/11 04:02:09;;;;;;;46.20;21.38;;;;;;;1.08;87.12;100725.88;5044916;28;20386;-61
2022/12/11 04:04:39;;;;;;;58.80;23.27;;;;;;;1.08;86.78;100722.44;5053534;28;20024;-61
2022/12/11 04:07:05;;;;;;;50.30;21.05;;;;;;;1.08;86.62;100717.34;5050716;28;20613;-61
2022/12/11 04:09:31;;;;;;;50.72;22.42;;;;;;;1.03;86.46;100716.38;5031805;28;20044;-61
2022/12/11 04:11:56;;;;;;;51.88;21.92;;;;;;;1.07;86.56;100711.41;5042931;28;20025;-62
2022/12/11 04:17:05;;;;;;;53.28;22.70;;;;;;;1.08;86.64;100707.19;5043914;28;20263;-62
2022/12/11 04:25:02;;;;;;;52.72;20.23;;;;;;;1.07;86.26;100705.44;5046815;28;20120;-61
2022/12/11 04:30:19;;;;;;;46.42;17.10;;;;;;;1.11;86.63;100707.25;5053786;28;20039;-61
2022/12/11 04:32:45;;;;;;;49.38;18.60;;;;;;;1.13;86.65;100708.16;5054588;28;20494;-61
2022/12/11 04:35:11;;;;;;;47.80;20.50;;;;;;;1.15;86.69;100709.09;5044335;28;20048;-62
2022/12/11 04:37:37;;;;;;;50.22;22.40;;;;;;;1.14;86.75;100700.59;5038495;28;20049;-62
2022/12/11 04:40:04;;;;;;;50.03;19.83;;;;;;;1.16;86.82;100698.94;5030208;28;20033;-61
2022/12/11 04:42:30;;;;;;;51.92;21.25;;;;;;;1.17;86.95;100690.50;5042095;28;20519;-61
2022/12/11 04:44:55;;;;;;;45.72;19.00;;;;;;;1.18;86.71;100693.91;5042827;28;20032;-61
2022/12/11 04:47:21;;;;;;;44.28;19.27;;;;;;;1.18;86.86;100699.00;5041656;28;20025;-61
2022/12/11 04:49:46;;;;;;;43.88;20.33;;;;;;;1.18;86.59;100699.81;5043297;28;20056;-61
2022/12/11 04:52:12;;;;;;;49.08;19.58;;;;;;;1.19;86.63;100706.66;5056126;28;20064;-61
2022/12/11 04:54:37;;;;;;;48.40;19.88;;;;;;;1.16;85.98;100698.94;5050618;28;20566;-62
2022/12/11 04:57:02;;;;;;;48.58;19.25;;;;;;;1.14;86.34;100700.59;5042115;28;20302;-61
2022/12/11 04:59:28;;;;;;;51.55;19.95;;;;;;;1.14;86.27;100692.06;5043982;28;20063;-64
2022/12/11 05:01:53;;;;;;;48.47;20.58;;;;;;;1.16;86.42;100703.16;5043593;28;20033;-62
2022/12/11 05:04:18;;;;;;;49.95;21.10;;;;;;;1.17;86.81;100697.25;5046136;28;20041;-61
2022/12/11 05:06:44;;;;;;;46.65;20.35;;;;;;;1.17;86.71;100695.56;5049695;28;20455;-63
2022/12/11 05:09:10;;;;;;;55.10;22.15;;;;;;;1.15;87.04;100694.66;5055276;28;20036;-61
2022/12/11 05:11:36;;;;;;;52.80;21.42;;;;;;;1.18;87.07;100692.19;5046025;28;20816;-61
2022/12/11 05:14:01;;;;;;;48.92;20.75;;;;;;;1.19;86.91;100690.50;5045742;28;20215;-61
2022/12/11 05:16:27;;;;;;;51.40;21.10;;;;;;;1.20;86.70;100689.69;5044365;28;20036;-61
2022/12/11 05:18:53;;;;;;;47.78;18.90;;;;;;;1.21;86.85;100684.63;5064170;28;20048;-61
2022/12/11 05:21:18;;;;;;;46.42;19.10;;;;;;;1.22;86.83;100677.88;5055417;28;20025;-62
2022/12/11 05:23:44;;;;;;;42.22;16.67;;;;;;;1.23;86.78;100677.94;5049051;28;20235;-61
2022/12/11 05:26:15;;;;;;;42.40;18.25;;;;;;;1.23;86.34;100669.44;5056539;28;20499;-61
2022/12/11 05:28:42;;;;;;;42.28;18.38;;;;;;;1.25;86.79;100675.41;5048879;28;20041;-61
2022/12/11 05:31:18;;;;;;;45.20;18.20;;;;;;;1.22;86.19;100678.75;5062298;28;20060;-61
2022/12/11 05:33:45;;;;;;;50.47;18.52;;;;;;;1.24;85.97;100676.25;5065608;28;20036;-61
2022/12/11 05:36:22;;;;;;;63.70;31.23;;;;;;;1.20;86.21;100671.88;5065340;28;20024;-61
2022/12/11 05:38:49;;;;;;;49.70;22.42;;;;;;;1.18;86.69;100674.38;5064829;28;20068;-62
2022/12/11 05:41:18;;;;;;;55.47;22.25;;;;;;;1.17;86.81;100671.81;5064558;28;20043;-63
2022/12/11 05:43:44;;;;;;;46.25;20.70;;;;;;;1.16;86.66;100664.97;5063733;28;20489;-61
2022/12/11 05:46:13;;;;;;;60.05;23.98;;;;;;;1.15;86.85;100671.75;5063298;28;20029;-61
2022/12/11 05:48:38;;;;;;;69.20;32.10;;;;;;;1.15;86.44;100668.34;5049157;28;20093;-61
2022/12/11 05:51:05;;;;;;;64.68;28.63;;;;;;;1.19;86.63;100672.69;5048181;28;20040;-61
2022/12/11 05:53:31;;;;;;;46.28;20.52;;;;;;;1.21;86.58;100668.53;5058107;28;20024;-62
2022/12/11 05:56:26;;;;;;;44.70;19.30;;;;;;;1.24;87.01;100673.72;5044531;28;20445;-61
2022/12/11 05:58:53;;;;;;;51.20;20.05;;;;;;;1.25;86.78;100671.19;5044206;28;20418;-61
2022/12/11 06:01:23;;;;;;;42.50;18.77;;;;;;;1.27;86.81;100677.16;5043735;28;20111;-62
2022/12/11 06:03:49;;;;;;;50.92;20.65;;;;;;;1.29;86.90;100680.66;5051518;28;20493;-61
2022/12/11 06:06:14;;;;;;;43.72;18.90;;;;;;;1.32;86.67;100679.84;5063996;28;20028;-62
2022/12/11 06:08:40;;;;;;;60.53;23.17;;;;;;;1.33;86.61;100678.19;5064289;28;20061;-61
2022/12/11 06:11:06;;;;;;;53.40;21.00;;;;;;;1.31;86.71;100673.03;5063805;28;20037;-61
2022/12/11 06:13:32;;;;;;;57.70;21.65;;;;;;;1.30;86.76;100676.41;5058021;28;20194;-61
2022/12/11 06:16:05;;;;;;;48.00;20.77;;;;;;;1.29;86.72;100667.91;5044559;28;20033;-61
2022/12/11 06:18:31;;;;;;;56.95;22.42;;;;;;;1.30;87.11;100668.78;5054649;28;20043;-61
2022/12/11 06:20:56;;;;;;;57.95;22.25;;;;;;;1.28;86.82;100668.72;5059506;28;20021;-61
2022/12/11 06:23:22;;;;;;;57.30;22.55;;;;;;;1.27;87.05;100666.97;5049799;28;20036;-61
2022/12/11 06:25:47;;;;;;;55.58;21.42;;;;;;;1.27;87.02;100664.44;5046630;28;20037;-61
2022/12/11 06:28:13;;;;;;;52.00;21.00;;;;;;;1.28;87.08;100663.63;5043390;28;20063;-61
2022/12/11 06:30:38;;;;;;;48.65;19.58;;;;;;;1.27;86.66;100668.69;5043533;28;20040;-61
2022/12/11 06:33:04;;;;;;;43.70;18.77;;;;;;;1.25;86.16;100655.03;5050104;28;20040;-61
2022/12/11 06:35:29;;;;;;;45.17;17.95;;;;;;;1.21;85.49;100664.28;5044490;28;20037;-60
2022/12/11 06:37:55;;;;;;;36.15;17.80;;;;;;;1.22;85.79;100663.47;5043547;28;20118;-63
2022/12/11 06:40:20;;;;;;;45.25;17.55;;;;;;;1.22;85.84;100658.38;5044032;28;20040;-61
2022/12/11 06:42:45;;;;;;;45.30;19.08;;;;;;;1.25;85.94;100663.53;5047501;28;20114;-61
2022/12/11 06:45:11;;;;;;;44.15;18.00;;;;;;;1.25;86.12;100653.38;5064020;28;20048;-61
2022/12/11 06:47:36;;;;;;;42.03;16.98;;;;;;;1.27;86.12;100653.44;5062470;28;20027;-61
2022/12/11 06:50:02;;;;;;;45.78;20.30;;;;;;;1.28;86.19;100660.22;5059117;28;20033;-61
2022/12/11 06:52:28;;;;;;;47.90;17.50;;;;;;;1.29;86.02;100662.81;5051669;28;20112;-61
2022/12/11 06:54:53;;;;;;;50.92;20.67;;;;;;;1.29;86.40;100665.38;5063734;28;20387;-61
2022/12/11 06:57:19;;;;;;;44.75;19.98;;;;;;;1.30;86.40;100663.69;5065422;28;20196;-61
2022/12/11 06:59:45;;;;;;;54.25;21.42;;;;;;;1.29;86.56;100670.47;5063459;28;20039;-61
2022/12/11 07:02:18;;;;;;;52.42;22.92;;;;;;;1.26;86.56;100664.41;5063653;28;20277;-61
2022/12/11 07:04:44;;;;;;;58.15;24.50;;;;;;;1.24;87.04;100666.91;5062038;28;20097;-61
2022/12/11 07:07:09;;;;;;;61.58;26.10;;;;;;;1.26;86.70;100675.47;5063467;28;20068;-61
2022/12/11 07:09:37;;;;;;;54.85;23.75;;;;;;;1.29;86.80;100672.13;5049237;28;20526;-63
2022/12/11 07:12:03;;;;;;;51.20;22.98;;;;;;;1.30;86.73;100679.81;5044038;28;20033;-62
2022/12/11 07:14:29;;;;;;;48.00;20.60;;;;;;;1.30;86.86;100677.25;5043834;28;20032;-61
2022/12/11 07:16:55;;;;;;;54.13;23.00;;;;;;;1.32;86.71;100679.00;5049436;28;20036;-61
2022/12/11 07:19:20;;;;;;;57.03;22.95;;;;;;;1.29;86.49;100682.31;5061612;28;20473;-61
2022/12/11 07:21:46;;;;;;;51.20;21.92;;;;;;;1.29;86.60;100680.66;5056797;28;20573;-62
2022/12/11 07:24:11;;;;;;;59.75;23.10;;;;;;;1.31;86.44;100683.22;5053677;28;20036;-61
2022/12/11 07:26:37;;;;;;;62.10;23.13;;;;;;;1.30;86.27;100684.06;5043890;28;20024;-61
2022/12/11 07:29:02;;;;;;;56.85;24.05;;;;;;;1.34;86.46;100679.88;5043204;28;20040;-61
2022/12/11 07:31:29;;;;;;;55.40;23.25;;;;;;;1.34;86.24;100674.78;5042654;28;20044;-59
2022/12/11 07:33:56;;;;;;;64.43;23.02;;;;;;;1.37;86.48;100677.41;5043800;28;20128;-59
2022/12/11 07:36:22;;;;;;;55.42;22.52;;;;;;;1.38;86.69;100668.97;5043454;28;20043;-59
2022/12/11 07:38:48;;;;;;;72.25;25.17;;;;;;;1.35;86.29;100679.94;5047579;28;20804;-59
2022/12/11 07:41:14;;;;;;;66.32;25.42;;;;;;;1.35;86.52;100667.22;5062207;28;20067;-64
2022/12/11 07:43:41;;;;;;;81.80;30.05;;;;;;;1.33;86.64;100676.47;5047593;28;20060;-64
2022/12/11 07:46:09;;;;;;;85.82;33.20;;;;;;;1.37;86.66;100674.88;5043269;28;20033;-64
2022/12/11 07:48:36;;;;;;;86.93;30.60;;;;;;;1.37;86.90;100677.41;5042579;28;20029;-63
2022/12/11 07:51:23;;;;;;;84.72;29.88;;;;;;;1.36;86.36;100675.72;5054828;28;20029;-64
2022/12/11 07:53:49;;;;;;;86.50;31.92;;;;;;;1.36;86.59;100683.34;5060224;28;20024;-64
2022/12/11 07:56:16;;;;;;;86.38;31.55;;;;;;;1.38;86.66;100679.16;5053362;28;20032;-64
2022/12/11 07:58:42;;;;;;;86.25;31.08;;;;;;;1.39;86.74;100676.63;5042627;28;20040;-63
2022/12/11 08:01:12;;;;;;;96.20;32.35;;;;;;;1.42;86.40;100680.97;5042028;28;20029;-64
2022/12/11 08:03:38;;;;;;;76.72;30.05;;;;;;;1.41;86.47;100680.09;5042237;28;20095;-64
2022/12/11 08:06:04;;;;;;;85.70;31.73;;;;;;;1.43;86.03;100683.53;5042665;28;20090;-63
2022/12/11 08:08:30;;;;;;;89.00;33.28;;;;;;;1.43;86.70;100677.59;5057905;28;20044;-64
2022/12/11 08:10:59;;;;;;;83.55;31.83;;;;;;;1.45;86.55;100678.50;5062417;28;20032;-64
2022/12/11 08:13:24;;;;;;;83.47;32.20;;;;;;;1.45;86.16;100679.34;5039037;28;20035;-64
2022/12/11 08:15:50;;;;;;;91.18;33.80;;;;;;;1.45;86.19;100673.41;5038008;28;20033;-64
2022/12/11 08:18:15;;;;;;;89.10;32.75;;;;;;;1.44;86.12;100672.56;5053187;28;20044;-63
2022/12/11 08:20:40;;;;;;;87.70;31.88;;;;;;;1.47;86.36;100674.31;5061234;28;20107;-64
2022/12/11 08:23:06;;;;;;;86.95;30.50;;;;;;;1.45;86.04;100669.16;5062014;28;20090;-64
2022/12/11 08:25:31;;;;;;;91.68;32.38;;;;;;;1.49;85.79;100667.56;5062237;28;20040;-64
2022/12/11 08:27:57;;;;;;;73.95;28.95;;;;;;;1.51;85.51;100671.03;5048869;28;20047;-64
2022/12/11 08:30:22;;;;;;;70.15;27.85;;;;;;;1.52;85.51;100671.06;5062035;28;20032;-64
2022/12/11 08:32:47;;;;;;;76.65;32.20;;;;;;;1.53;85.40;100670.25;5062728;28;20028;-63
2022/12/11 08:35:13;;;;;;;77.20;31.15;;;;;;;1.55;85.44;100665.19;5059059;28;20123;-64
2022/12/11 08:37:39;;;;;;;73.90;28.33;;;;;;;1.57;85.79;100671.16;5066503;28;21075;-63
2022/12/11 08:40:05;;;;;;;80.15;29.88;;;;;;;1.59;85.53;100674.63;5061503;28;20735;-64
2022/12/11 08:42:30;;;;;;;77.75;32.13;;;;;;;1.61;85.16;100671.31;5064832;28;20035;-64
2022/12/11 08:44:55;;;;;;;78.03;29.98;;;;;;;1.60;85.02;100669.56;5066598;28;20338;-64
2022/12/11 08:47:21;;;;;;;79.50;29.25;;;;;;;1.63;85.19;100668.78;5066521;28;20405;-63
2022/12/11 08:49:47;;;;;;;69.45;29.42;;;;;;;1.66;85.15;100661.22;5065878;28;20033;-63
2022/12/11 08:52:12;;;;;;;76.75;29.35;;;;;;;1.67;85.08;100662.94;5052467;28;20760;-64
2022/12/11 08:54:37;;;;;;;71.75;28.95;;;;;;;1.69;84.76;100668.94;5054300;28;20045;-64
2022/12/11 08:57:03;;;;;;;72.97;27.63;;;;;;;1.71;84.23;100675.81;5045658;28;20044;-63
2022/12/11 08:59:29;;;;;;;71.63;29.50;;;;;;;1.68;83.50;100669.78;5045646;28;20052;-64
2022/12/11 09:01:54;;;;;;;68.22;28.33;;;;;;;1.68;83.49;100673.19;5045748;28;20040;-64
2022/12/11 09:04:21;;;;;;;68.05;28.10;;;;;;;1.74;83.08;100675.03;5046009;28;20045;-63
2022/12/11 09:06:46;;;;;;;71.68;29.02;;;;;;;1.77;82.64;100672.56;5050418;28;20039;-63
2022/12/11 09:09:11;;;;;;;69.28;31.52;;;;;;;1.82;83.33;100679.50;5057600;28;20021;-64
2022/12/11 09:11:37;;;;;;;68.03;30.20;;;;;;;1.82;82.44;100676.06;5057777;28;20029;-64
2022/12/11 09:14:03;;;;;;;71.93;29.90;;;;;;;1.80;83.15;100662.44;5055150;28;20037;-64
2022/12/11 09:16:29;;;;;;;78.65;33.33;;;;;;;1.85;83.01;100669.38;5046415;28;20041;-64
2022/12/11 09:18:57;;;;;;;77.22;33.90;;;;;;;1.91;82.76;100676.31;5065344;28;20090;-64
2022/12/11 09:21:26;;;;;;;76.03;32.47;;;;;;;1.91;82.09;100666.13;5060070;28;20398;-64
2022/12/11 09:23:53;;;;;;;72.28;32.33;;;;;;;1.97;82.40;100665.41;5062560;28;20390;-64
2022/12/11 09:26:19;;;;;;;76.15;30.02;;;;;;;2.01;82.79;100662.97;5046874;28;20134;-63
2022/12/11 09:28:45;;;;;;;70.32;30.58;;;;;;;2.07;82.92;100669.91;5045258;28;20565;-64
2022/12/11 09:31:16;;;;;;;72.97;31.27;;;;;;;2.05;82.49;100671.53;5046955;28;20060;-64
2022/12/11 09:33:42;;;;;;;71.75;28.85;;;;;;;2.08;82.48;100675.03;5064506;28;20036;-64
2022/12/11 09:36:08;;;;;;;65.88;28.77;;;;;;;2.01;82.47;100672.31;5056154;28;20101;-68
2022/12/11 09:38:35;;;;;;;61.47;28.38;;;;;;;2.03;81.95;100684.25;5065772;28;20400;-69
2022/12/11 09:41:01;;;;;;;71.78;29.42;;;;;;;2.10;81.58;100677.63;5045289;28;20083;-64
2022/12/11 09:43:39;;;;;;;61.03;27.17;;;;;;;2.11;81.18;100682.75;5043477;28;20052;-63
2022/12/11 09:46:10;;;;;;;61.65;27.27;;;;;;;2.13;81.42;100675.16;5059225;28;20396;-64
2022/12/11 09:48:38;;;;;;;58.47;26.23;;;;;;;2.17;80.97;100671.81;5060136;28;20037;-64
2022/12/11 09:51:36;;;;;;;58.65;26.67;;;;;;;2.11;80.93;100670.00;5055579;28;20033;-63
2022/12/11 09:54:03;;;;;;;67.47;29.30;;;;;;;2.01;80.66;100672.31;5057949;28;20533;-63
2022/12/11 09:56:34;;;;;;;62.00;27.70;;;;;;;2.00;81.78;100673.13;5056907;28;20033;-64
2022/12/11 09:59:20;;;;;;;69.78;29.73;;;;;;;2.04;81.31;100670.69;5065144;28;20157;-63
2022/12/11 10:01:48;;;;;;;;;;;;;;;2.09;81.23;100669.09;5065282;28;20205;-63
2022/12/11 10:04:30;;;;;;;59.15;27.60;;;;;;;2.10;80.70;100668.25;5064716;28;20001;-63
2022/12/11 10:07:05;;;;;;;63.30;27.80;;;;;;;2.14;80.24;100667.53;5053013;28;20044;-63
2022/12/11 10:09:48;;;;;;;59.88;26.92;;;;;;;2.20;80.96;100665.13;5056293;28;20037;-64
2022/12/11 10:12:30;;;;;;;51.60;24.98;;;;;;;2.20;79.61;100657.47;5062490;28;20439;-64
2022/12/11 10:15:05;;;;;;;54.78;24.30;;;;;;;2.15;79.28;100651.41;5064635;28;20029;-64
2022/12/11 10:17:33;;;;;;;57.65;24.95;;;;;;;2.19;80.55;100648.09;5056238;28;20080;-64
2022/12/11 10:20:21;;;;;;;57.80;26.05;;;;;;;2.17;80.32;100643.78;5063029;28;20574;-64
2022/12/11 10:22:49;;;;;;;55.50;24.38;;;;;;;2.14;79.85;100638.63;5050827;28;20082;-63
2022/12/11 10:25:31;;;;;;;49.40;23.17;;;;;;;2.07;80.15;100649.50;5060773;28;20040;-63
2022/12/11 10:27:57;;;;;;;65.47;29.33;;;;;;;2.14;80.33;100646.25;5041232;28;20044;-64
2022/12/11 10:30:25;;;;;;;72.43;30.60;;;;;;;2.26;79.69;100644.88;5043399;28;20053;-63
2022/12/11 10:33:02;;;;;;;70.95;30.52;;;;;;;2.31;79.83;100634.78;5036503;28;20478;-62
2022/12/11 10:35:52;;;;;;;65.15;28.85;;;;;;;2.47;79.61;100639.38;5063871;28;20056;-61
2022/12/11 10:38:23;;;;;;;56.42;25.48;;;;;;;2.58;78.86;100626.88;5063774;28;20036;-61
2022/12/11 10:40:53;;;;;;;69.22;30.92;;;;;;;2.70;78.47;100622.88;5045549;28;20056;-62
2022/12/11 10:43:19;;;;;;;67.00;32.13;;;;;;;2.70;78.43;100620.31;5044291;28;20037;-62
2022/12/11 10:45:53;;;;;;;72.50;34.67;;;;;;;2.69;78.11;100622.84;5043654;28;20869;-62
2022/12/11 10:48:19;;;;;;;58.90;27.55;;;;;;;2.66;78.49;100617.69;5044021;28;20079;-61
2022/12/11 10:50:56;;;;;;;57.25;27.83;;;;;;;2.70;78.37;100614.34;5053324;28;20027;-62
2022/12/11 10:53:22;;;;;;;61.00;28.92;;;;;;;2.75;77.89;100612.78;5051536;28;20082;-62
2022/12/11 10:55:49;;;;;;;58.45;27.30;;;;;;;2.76;78.02;100606.81;5063208;28;20032;-62
2022/12/11 10:58:24;;;;;;;54.60;26.73;;;;;;;2.82;77.35;100606.94;5061717;28;20298;-61
2022/12/11 11:01:15;;;;;;;52.53;25.55;;;;;;;2.90;76.62;100606.25;5062297;28;20029;-62
2022/12/11 11:04:02;;;;;;;47.88;22.92;;;;;;;2.95;75.99;100604.69;5061770;28;20049;-59
2022/12/11 11:06:27;;;;;;;48.70;23.08;;;;;;;2.83;76.52;100609.53;5051467;28;20037;-64
2022/12/11 11:08:59;;;;;;;64.70;30.00;;;;;;;2.78;76.42;100612.84;5035475;28;20029;-64
2022/12/11 11:11:35;;;;;;;75.05;32.75;;;;;;;2.76;76.99;100599.16;5042705;28;20143;-64
2022/12/11 11:14:21;;;;;;;92.80;41.72;;;;;;;2.77;75.96;100601.75;5043193;28;20067;-68
2022/12/11 11:16:50;;;;;;;100.05;43.50;;;;;;;2.78;76.48;100598.38;5044039;28;20025;-68
2022/12/11 11:19:35;;;;;;;63.83;29.80;;;;;;;2.89;76.27;100594.34;5062345;28;20047;-64
2022/12/11 11:22:04;;;;;;;59.65;27.33;;;;;;;3.01;75.39;100585.19;5056359;28;20119;-62
2022/12/11 11:24:40;;;;;;;58.55;27.85;;;;;;;2.95;74.82;100579.16;5058498;28;20473;-61
2022/12/11 11:27:35;;;;;;;41.88;21.38;;;;;;;2.69;74.82;100575.22;5047061;28;20012;-62
2022/12/11 11:30:16;;;;;;;49.67;24.95;;;;;;;2.48;76.64;100579.91;5051337;28;20021;-64
2022/12/11 11:32:41;;;;;;;48.03;24.35;;;;;;;2.39;76.42;100566.94;5062841;28;20028;-61
2022/12/11 11:35:12;;;;;;;56.60;27.67;;;;;;;2.39;77.10;100572.91;5062599;28;20462;-61
2022/12/11 11:37:40;;;;;;;47.90;24.30;;;;;;;2.40;77.37;100569.50;5062762;28;20151;-61
2022/12/11 11:40:26;;;;;;;44.35;23.20;;;;;;;2.49;76.65;100573.09;5050766;28;20041;-62